Aeroporto :
LOGIN :

Iscrizione | Disclaimer

   EN    FR    IT 

 










Sommario :    VFR   VFR Marginale   IFR   IFR Intensivo   IFR Molto Intensivo
Visibilità : 
Base nubi : 
>= 8 km
>= 3000ft
5 / 8 km
1000 / 3000 ft
1500m / 5 km
500 / 1000 ft
800 / 1500m
200 / 500 ft
< 800m
< 200 ft
Simboli :   Temporali  Nebbia  Neve Forte  Precipitazioni Forti  Vento > 20 kt
SIGMETs :   Varie  Temporali  Ghiacco  Turbolenza  Onda orograficha  Ceneri Vulcaniche






- Altitudine del aeroporto : 68 ft
- Codice IATA : AGH


ESTA - Ängelholm-Helsingborg

ULTIMO METAR :
  • 290920Z 03017KT CAVOK 02/M11 Q1031

METARs OBSOLETI :
  • 290850Z 04017KT CAVOK 02/M10 Q1031
  • 290820Z 05015KT CAVOK 01/M10 Q1030
  • 290750Z 04020KT CAVOK 01/M09 Q1030
  • 290720Z 04016KT CAVOK 00/M08 Q1030
  • 290650Z 04018KT CAVOK 00/M08 Q1029

TAF TAF ESTA
Valido dal 29 a 09 ore il 29 a 12 ore UTC


290805Z 2909/2912 04018KT CAVOK
TEMPO 2909/2910 02015G25KT



MetMap, La meteo Aeronautica in un colpo d'occhio ! - Copyright ORBIFLY Dicembre 2007 - Disclaimer

ORBIFLY MET'MAP TEAM :

Programmazione e sviluppo : Alexandra Zaïnal
Concezione : Baudouin d'Aumeries
Aiuto per la programmazione : Marc-Olivier Méhu
Supporto tecnico e logistico : Manuel Goepfert
Aiuto per la traduzione : Arnaldo La Scala

Contatto : metmap@orbifly.com




FONTI E CREDITI :

   NOAA